createdAt,value
2022-11-20T00:00:59.658Z,2.60
2022-11-20T00:03:27.507Z,2.67
2022-11-20T00:05:55.335Z,2.77
2022-11-20T00:08:23.166Z,2.40
2022-11-20T00:10:50.994Z,2.60
2022-11-20T00:13:18.824Z,2.40
2022-11-20T00:15:47.996Z,2.40
2022-11-20T00:18:15.875Z,2.67
2022-11-20T00:20:43.701Z,3.20
2022-11-20T00:23:11.551Z,3.37
2022-11-20T00:25:39.395Z,3.27
2022-11-20T00:28:07.207Z,4.00
2022-11-20T00:30:35.055Z,3.77
2022-11-20T00:33:04.347Z,4.27
2022-11-20T00:35:32.150Z,4.00
2022-11-20T00:37:59.951Z,3.90
2022-11-20T00:40:27.763Z,4.67
2022-11-20T00:42:55.561Z,4.10
2022-11-20T00:45:23.816Z,4.10
2022-11-20T00:47:51.624Z,4.10
2022-11-20T00:50:20.813Z,4.47
2022-11-20T00:52:48.619Z,4.70
2022-11-20T00:55:16.554Z,4.33
2022-11-20T00:57:44.348Z,4.70
2022-11-20T01:00:12.711Z,4.50
2022-11-20T01:02:40.495Z,4.00
2022-11-20T01:05:08.894Z,4.17
2022-11-20T01:07:38.065Z,3.40
2022-11-20T01:10:06.718Z,3.40
2022-11-20T01:12:34.514Z,3.30
2022-11-20T01:15:02.383Z,3.50
2022-11-20T01:17:30.214Z,3.00
2022-11-20T01:19:58.022Z,3.50
2022-11-20T01:22:25.829Z,3.50
2022-11-20T01:24:54.992Z,3.23
2022-11-20T01:27:22.791Z,3.90
2022-11-20T01:29:50.612Z,3.90
2022-11-20T01:32:18.813Z,3.70
2022-11-20T01:34:47.093Z,4.17
2022-11-20T01:37:14.946Z,3.90
2022-11-20T01:39:42.774Z,4.20
2022-11-20T01:42:29.296Z,3.93
2022-11-20T01:44:59.584Z,3.83
2022-11-20T01:47:32.364Z,3.50
2022-11-20T01:50:06.288Z,4.13
2022-11-20T01:52:38.410Z,3.70
2022-11-20T01:55:09.059Z,3.60
2022-11-20T01:57:39.785Z,3.90
2022-11-20T02:00:10.654Z,3.10
2022-11-20T02:02:39.873Z,3.50
2022-11-20T02:05:20.932Z,3.60
2022-11-20T02:07:49.336Z,3.80
2022-11-20T02:10:17.574Z,3.00
2022-11-20T02:13:04.297Z,3.00
2022-11-20T02:15:32.359Z,3.40
2022-11-20T02:18:00.258Z,3.20
2022-11-20T02:20:28.317Z,3.43
2022-11-20T02:22:59.798Z,3.90
2022-11-20T02:25:29.818Z,2.70
2022-11-20T02:27:57.904Z,3.43
2022-11-20T02:30:25.968Z,3.20
2022-11-20T02:32:53.782Z,2.70
2022-11-20T02:35:47.064Z,2.80
2022-11-20T02:38:15.852Z,3.40
2022-11-20T02:40:45.040Z,2.60
2022-11-20T02:43:13.234Z,2.80
2022-11-20T02:45:41.107Z,2.60
2022-11-20T02:48:09.718Z,2.90
2022-11-20T02:50:39.868Z,2.80
2022-11-20T02:53:08.198Z,2.80
2022-11-20T02:55:36.054Z,2.40
2022-11-20T02:58:05.425Z,3.03
2022-11-20T03:00:33.590Z,3.10
2022-11-20T03:03:01.432Z,2.50
2022-11-20T03:05:29.239Z,2.73
2022-11-20T03:07:57.095Z,2.73
2022-11-20T03:10:24.955Z,2.70
2022-11-20T03:12:55.359Z,2.63
2022-11-20T03:15:24.693Z,2.80
2022-11-20T03:17:55.553Z,2.47
2022-11-20T03:20:23.729Z,3.37
2022-11-20T03:22:51.602Z,3.80
2022-11-20T03:25:19.433Z,3.20
2022-11-20T03:27:47.272Z,3.27
2022-11-20T03:30:15.866Z,3.40
2022-11-20T03:32:45.437Z,4.10
2022-11-20T03:35:13.269Z,3.03
2022-11-20T03:37:41.118Z,3.00
2022-11-20T03:40:09.996Z,2.80
2022-11-20T03:42:49.659Z,2.83
2022-11-20T03:45:18.989Z,3.40
2022-11-20T03:47:48.507Z,3.20
2022-11-20T03:50:16.648Z,3.10
2022-11-20T03:52:44.581Z,3.00
2022-11-20T03:55:12.714Z,3.17
2022-11-20T03:57:40.551Z,2.90
2022-11-20T04:00:09.456Z,3.03
2022-11-20T04:02:37.279Z,3.13
2022-11-20T04:05:07.178Z,2.93
2022-11-20T04:07:36.470Z,2.70
2022-11-20T04:10:04.868Z,3.17
2022-11-20T04:12:35.338Z,2.77
2022-11-20T04:15:03.238Z,2.33
2022-11-20T04:17:31.100Z,2.30
2022-11-20T04:19:58.959Z,2.70
2022-11-20T04:22:28.121Z,2.40
2022-11-20T04:24:55.943Z,2.90
2022-11-20T04:27:23.770Z,2.20
2022-11-20T04:29:51.636Z,2.30
2022-11-20T04:32:19.469Z,1.67
2022-11-20T04:34:47.286Z,2.00
2022-11-20T04:37:15.110Z,1.67
2022-11-20T04:39:44.458Z,1.90
2022-11-20T04:42:30.494Z,1.90
2022-11-20T04:44:59.029Z,1.70
2022-11-20T04:47:26.870Z,1.90
2022-11-20T04:49:54.772Z,1.97
2022-11-20T04:52:22.620Z,1.73
2022-11-20T04:54:53.721Z,1.93
2022-11-20T04:57:21.835Z,1.60
2022-11-20T04:59:49.654Z,1.97
2022-11-20T05:02:17.613Z,2.07
2022-11-20T05:04:45.533Z,2.10
2022-11-20T05:07:13.392Z,2.10
2022-11-20T05:09:41.325Z,2.10
2022-11-20T05:12:10.953Z,2.40
2022-11-20T05:14:38.784Z,2.40
2022-11-20T05:17:06.810Z,2.57
2022-11-20T05:19:34.644Z,2.27
2022-11-20T05:22:02.446Z,2.50
2022-11-20T05:24:30.255Z,2.30
2022-11-20T05:26:58.106Z,2.67
2022-11-20T05:29:27.286Z,2.83
2022-11-20T05:31:55.105Z,2.73
2022-11-20T05:34:22.943Z,2.30
2022-11-20T05:36:50.779Z,2.50
2022-11-20T05:39:18.674Z,2.00
2022-11-20T05:41:46.607Z,2.50
2022-11-20T05:44:14.537Z,2.47
2022-11-20T05:46:43.729Z,2.60
2022-11-20T05:49:11.772Z,2.73
2022-11-20T05:51:39.586Z,2.67
2022-11-20T05:54:07.465Z,2.93
2022-11-20T05:56:35.294Z,2.60
2022-11-20T05:59:03.121Z,2.40
2022-11-20T06:01:30.959Z,2.67
2022-11-20T06:04:00.143Z,2.23
2022-11-20T06:06:27.990Z,2.50
2022-11-20T06:08:56.694Z,2.43
2022-11-20T06:11:24.526Z,2.67
2022-11-20T06:13:52.593Z,2.70
2022-11-20T06:16:22.674Z,2.67
2022-11-20T06:18:50.707Z,2.43
2022-11-20T06:21:21.346Z,2.63
2022-11-20T06:23:49.958Z,1.83
2022-11-20T06:26:19.383Z,2.33
2022-11-20T06:28:47.489Z,2.43
2022-11-20T06:31:17.139Z,2.50
2022-11-20T06:33:45.412Z,2.20
2022-11-20T06:36:14.760Z,3.00
2022-11-20T06:38:44.535Z,2.67
2022-11-20T06:41:14.150Z,2.20
2022-11-20T06:43:42.139Z,2.70
2022-11-20T06:46:12.461Z,2.50
2022-11-20T06:48:40.606Z,2.60
2022-11-20T06:51:09.490Z,2.20
2022-11-20T06:53:38.026Z,2.60
2022-11-20T06:56:08.464Z,2.70
2022-11-20T06:58:37.501Z,2.57
2022-11-20T07:01:08.264Z,2.90
2022-11-20T07:03:36.206Z,2.60
2022-11-20T07:06:04.889Z,2.43
2022-11-20T07:08:33.580Z,2.50
2022-11-20T07:11:02.947Z,3.63
2022-11-20T07:13:32.143Z,2.50
2022-11-20T07:16:02.909Z,2.53
2022-11-20T07:18:30.992Z,2.70
2022-11-20T07:21:01.650Z,2.50
2022-11-20T07:23:29.598Z,2.40
2022-11-20T07:25:57.521Z,2.47
2022-11-20T07:28:25.369Z,2.40
2022-11-20T07:30:55.252Z,2.40
2022-11-20T07:33:23.372Z,2.37
2022-11-20T07:35:51.188Z,2.23
2022-11-20T07:38:19.033Z,2.70
2022-11-20T07:40:46.953Z,2.27
2022-11-20T07:43:14.973Z,2.43
2022-11-20T07:45:42.786Z,2.30
2022-11-20T07:48:12.177Z,2.30
2022-11-20T07:50:40.007Z,2.63
2022-11-20T07:53:08.151Z,2.20
2022-11-20T07:55:36.000Z,2.20
2022-11-20T07:58:03.810Z,2.47
2022-11-20T08:00:31.755Z,2.73
2022-11-20T08:02:59.652Z,2.67
2022-11-20T08:05:28.832Z,2.50
2022-11-20T08:07:56.675Z,2.63
2022-11-20T08:10:24.514Z,2.90
2022-11-20T08:13:11.065Z,3.23
2022-11-20T08:15:40.048Z,2.97
2022-11-20T08:20:59.158Z,2.67
2022-11-20T08:23:27.037Z,2.60
2022-11-20T08:25:54.852Z,2.83
2022-11-20T08:28:22.814Z,2.43
2022-11-20T08:30:51.430Z,2.70
2022-11-20T08:33:19.788Z,2.30
2022-11-20T08:35:47.922Z,2.57
2022-11-20T08:38:17.147Z,2.90
2022-11-20T08:41:06.125Z,2.73
2022-11-20T08:43:34.534Z,2.70
2022-11-20T08:46:02.463Z,2.63
2022-11-20T08:48:30.338Z,2.57
2022-11-20T08:51:00.448Z,2.77
2022-11-20T08:53:30.079Z,2.60
2022-11-20T08:55:59.340Z,2.33
2022-11-20T08:58:27.893Z,2.57
2022-11-20T09:00:56.048Z,2.83
2022-11-20T09:03:27.409Z,2.60
2022-11-20T09:06:00.705Z,2.30
2022-11-20T09:08:30.468Z,2.50
2022-11-20T09:10:59.955Z,2.80
2022-11-20T09:13:29.279Z,3.27
2022-11-20T09:15:57.677Z,2.50
2022-11-20T09:18:25.849Z,3.00
2022-11-20T09:20:54.418Z,3.67
2022-11-20T09:23:22.278Z,2.63
2022-11-20T09:25:51.457Z,2.70
2022-11-20T09:28:19.494Z,2.47
2022-11-20T09:30:47.362Z,2.80
2022-11-20T09:33:15.224Z,2.47
2022-11-20T09:35:44.429Z,2.53
2022-11-20T09:38:13.261Z,3.00
2022-11-20T09:40:45.652Z,2.77
2022-11-20T09:43:19.187Z,2.70
2022-11-20T09:45:58.769Z,2.40
2022-11-20T09:49:01.129Z,2.40
2022-11-20T09:51:41.194Z,2.80
2022-11-20T09:54:18.097Z,2.83
2022-11-20T09:56:50.582Z,2.27
2022-11-20T09:59:31.204Z,2.23
2022-11-20T10:02:00.551Z,2.80
2022-11-20T10:04:33.689Z,3.27
2022-11-20T10:07:31.495Z,2.90
2022-11-20T10:09:58.679Z,2.77
2022-11-20T10:12:33.705Z,2.77
2022-11-20T10:15:15.015Z,2.67
2022-11-20T10:18:01.055Z,2.60
2022-11-20T10:20:34.771Z,3.13
2022-11-20T10:23:25.839Z,2.80
2022-11-20T10:26:01.959Z,2.80
2022-11-20T10:28:39.096Z,3.33
2022-11-20T10:31:13.308Z,2.93
2022-11-20T10:34:10.706Z,3.03
2022-11-20T10:36:40.312Z,2.97
2022-11-20T10:39:16.884Z,3.57
2022-11-20T10:41:48.261Z,3.30
2022-11-20T10:44:39.791Z,3.00
2022-11-20T10:47:15.803Z,3.00
2022-11-20T10:49:45.240Z,3.03
2022-11-20T10:52:21.298Z,3.33
2022-11-20T10:54:56.016Z,2.80
2022-11-20T10:57:41.127Z,3.37
2022-11-20T11:00:11.726Z,3.10
2022-11-20T11:02:46.256Z,3.23
2022-11-20T11:05:26.308Z,3.20
2022-11-20T11:07:57.157Z,3.07
2022-11-20T11:10:30.063Z,3.10
2022-11-20T11:12:57.931Z,2.73
2022-11-20T11:15:31.412Z,3.50
2022-11-20T11:18:00.613Z,3.30
2022-11-20T11:20:28.571Z,3.07
2022-11-20T11:22:58.058Z,3.30
2022-11-20T11:25:34.460Z,2.87
2022-11-20T11:28:04.378Z,2.90
2022-11-20T11:30:43.051Z,2.47
2022-11-20T11:33:14.367Z,2.40
2022-11-20T11:35:50.976Z,2.67
2022-11-20T11:38:24.445Z,2.97
2022-11-20T11:40:55.987Z,3.17
2022-11-20T11:43:44.202Z,2.43
2022-11-20T11:46:29.228Z,2.20
2022-11-20T11:48:59.668Z,2.07
2022-11-20T11:51:32.839Z,2.20
2022-11-20T11:54:03.005Z,2.10
2022-11-20T11:56:33.240Z,1.97
2022-11-20T11:59:06.728Z,2.00
2022-11-20T12:01:41.780Z,1.73
2022-11-20T12:04:19.353Z,2.10
2022-11-20T12:06:53.604Z,2.20
2022-11-20T12:09:25.769Z,2.37
2022-11-20T12:12:00.948Z,1.83
2022-11-20T12:14:36.076Z,1.93
2022-11-20T12:17:04.622Z,1.57
2022-11-20T12:19:36.610Z,1.80
2022-11-20T12:22:14.461Z,1.70
2022-11-20T12:24:53.584Z,1.70
2022-11-20T12:27:55.219Z,2.17
2022-11-20T12:30:25.567Z,1.90
2022-11-20T12:33:08.174Z,2.37
2022-11-20T12:35:55.120Z,1.97
2022-11-20T12:38:53.408Z,1.90
2022-11-20T12:41:49.537Z,2.57
2022-11-20T12:44:46.394Z,2.40
2022-11-20T12:47:26.115Z,2.13
2022-11-20T12:50:03.792Z,2.47
2022-11-20T12:52:43.046Z,2.23
2022-11-20T12:55:32.529Z,2.23
2022-11-20T12:58:07.441Z,2.57
2022-11-20T13:00:37.803Z,2.40
2022-11-20T13:03:27.166Z,2.33
2022-11-20T13:06:07.211Z,2.17
2022-11-20T13:08:38.712Z,1.63
2022-11-20T13:11:14.193Z,2.10
2022-11-20T13:13:51.454Z,1.70
2022-11-20T13:16:25.677Z,2.00
2022-11-20T13:18:53.637Z,1.80
2022-11-20T13:21:24.479Z,1.87
2022-11-20T13:23:53.680Z,1.43
2022-11-20T13:26:24.663Z,1.87
2022-11-20T13:29:05.185Z,1.50
2022-11-20T13:31:36.052Z,1.40
2022-11-20T13:34:07.831Z,1.50
2022-11-20T13:36:37.538Z,1.80
2022-11-20T13:39:07.256Z,1.70
2022-11-20T13:41:38.709Z,1.50
2022-11-20T13:44:16.730Z,1.50
2022-11-20T13:46:46.391Z,1.80
2022-11-20T13:49:28.045Z,1.50
2022-11-20T13:52:06.928Z,1.80
2022-11-20T13:55:04.422Z,1.50
2022-11-20T13:58:00.954Z,1.27
2022-11-20T14:00:29.017Z,1.80
2022-11-20T14:03:15.648Z,1.83
2022-11-20T14:05:52.370Z,1.90
2022-11-20T14:08:28.778Z,1.60
2022-11-20T14:11:18.000Z,1.67
2022-11-20T14:13:57.701Z,1.53
2022-11-20T14:16:26.912Z,1.60
2022-11-20T14:18:56.137Z,2.00
2022-11-20T14:21:25.699Z,2.00
2022-11-20T14:23:56.091Z,2.43
2022-11-20T14:26:25.292Z,1.80
2022-11-20T14:28:53.692Z,1.93
2022-11-20T14:31:26.315Z,1.70
2022-11-20T14:33:54.934Z,2.10
2022-11-20T14:36:25.269Z,2.70
2022-11-20T14:38:54.382Z,2.20
2022-11-20T14:41:23.922Z,1.87
2022-11-20T14:43:58.560Z,2.20
2022-11-20T14:46:26.985Z,2.10
2022-11-20T14:48:58.455Z,1.90
2022-11-20T14:51:31.727Z,1.70
2022-11-20T14:54:10.895Z,1.90
2022-11-20T14:56:38.977Z,1.90
2022-11-20T14:59:09.341Z,2.33
2022-11-20T15:01:38.368Z,2.23
2022-11-20T15:04:10.915Z,2.90
2022-11-20T15:06:39.711Z,2.80
2022-11-20T15:09:15.053Z,3.73
2022-11-20T15:11:56.099Z,1.90
2022-11-20T15:14:26.345Z,2.50
2022-11-20T15:16:54.845Z,2.70
2022-11-20T15:19:24.863Z,3.70
2022-11-20T15:21:53.180Z,2.50
2022-11-20T15:24:21.848Z,1.97
2022-11-20T15:26:50.005Z,2.30
2022-11-20T15:29:20.179Z,2.33
2022-11-20T15:31:49.331Z,1.83
2022-11-20T15:34:17.780Z,1.60
2022-11-20T15:36:45.973Z,1.57
2022-11-20T15:39:13.858Z,2.30
2022-11-20T15:41:41.796Z,2.67
2022-11-20T15:44:09.639Z,2.40
2022-11-20T15:46:42.414Z,2.20
2022-11-20T15:49:15.130Z,2.57
2022-11-20T15:51:45.424Z,3.23
2022-11-20T15:54:15.043Z,3.40
2022-11-20T15:56:43.574Z,3.30
2022-11-20T15:59:11.450Z,3.70
2022-11-20T16:01:39.331Z,4.00
2022-11-20T16:04:11.583Z,1.53
2022-11-20T16:06:40.798Z,2.10
2022-11-20T16:09:09.007Z,2.07
2022-11-20T16:11:38.327Z,1.70
2022-11-20T16:14:25.140Z,1.50
2022-11-20T16:16:53.206Z,1.43
2022-11-20T16:19:21.084Z,1.13
2022-11-20T16:21:50.270Z,1.40
2022-11-20T16:24:18.281Z,1.67
2022-11-20T16:26:46.104Z,1.30
2022-11-20T16:29:14.006Z,1.33
2022-11-20T16:31:41.866Z,1.50
2022-11-20T16:34:12.572Z,1.13
2022-11-20T16:36:42.405Z,1.57
2022-11-20T16:39:11.684Z,1.63
2022-11-20T16:41:39.601Z,1.30
2022-11-20T16:44:10.100Z,1.33
2022-11-20T16:46:38.849Z,1.63
2022-11-20T16:49:09.131Z,1.37
2022-11-20T16:51:37.665Z,1.90
2022-11-20T16:54:06.745Z,1.50
2022-11-20T16:56:36.090Z,1.60
2022-11-20T16:59:04.666Z,1.50
2022-11-20T17:01:33.074Z,1.70
2022-11-20T17:04:02.914Z,2.10
2022-11-20T17:06:33.077Z,2.10
2022-11-20T17:09:01.299Z,2.20
2022-11-20T17:11:29.698Z,2.00
2022-11-20T17:14:00.988Z,1.80
2022-11-20T17:16:29.153Z,2.13
2022-11-20T17:19:02.633Z,1.77
2022-11-20T17:21:31.980Z,1.30
2022-11-20T17:24:03.442Z,2.30
2022-11-20T17:26:31.708Z,2.20
2022-11-20T17:29:04.905Z,1.50
2022-11-20T17:31:34.539Z,1.47
2022-11-20T17:34:03.245Z,1.50
2022-11-20T17:36:32.046Z,1.30
2022-11-20T17:39:00.555Z,1.57
2022-11-20T17:41:30.219Z,1.83
2022-11-20T17:44:01.232Z,1.40
2022-11-20T17:46:32.685Z,1.60
2022-11-20T17:49:01.784Z,1.30
2022-11-20T17:51:31.358Z,1.67
2022-11-20T17:54:01.876Z,1.40
2022-11-20T17:56:49.827Z,1.50
2022-11-20T17:59:19.637Z,1.60
2022-11-20T18:01:47.787Z,1.50
2022-11-20T18:04:16.678Z,1.57
2022-11-20T18:06:44.565Z,1.43
2022-11-20T18:09:13.290Z,1.57
2022-11-20T18:11:43.596Z,1.27
2022-11-20T18:14:32.578Z,1.03
2022-11-20T18:17:04.723Z,1.17
2022-11-20T18:19:37.568Z,1.20
2022-11-20T18:22:08.789Z,1.27
2022-11-20T18:24:38.259Z,1.23
2022-11-20T18:27:07.537Z,1.53
2022-11-20T18:29:35.468Z,1.23
2022-11-20T18:32:04.739Z,1.50
2022-11-20T18:34:32.589Z,1.50
2022-11-20T18:37:00.417Z,1.83
2022-11-20T18:39:28.636Z,1.50
2022-11-20T18:42:14.141Z,1.23
2022-11-20T18:44:54.972Z,1.37
2022-11-20T18:47:26.151Z,1.63
2022-11-20T18:49:57.199Z,1.57
2022-11-20T18:52:27.397Z,1.70
2022-11-20T18:54:55.926Z,1.40
2022-11-20T18:57:27.002Z,1.30
2022-11-20T18:59:55.367Z,1.20
2022-11-20T19:02:24.563Z,1.13
2022-11-20T19:04:52.450Z,1.33
2022-11-20T19:07:20.392Z,1.40
2022-11-20T19:09:50.628Z,1.37
2022-11-20T19:12:18.879Z,1.47
2022-11-20T19:14:46.818Z,1.80
2022-11-20T19:17:14.774Z,1.13
2022-11-20T19:19:44.152Z,1.37
2022-11-20T19:22:12.013Z,1.50
2022-11-20T19:24:39.885Z,1.30
2022-11-20T19:27:07.936Z,1.40
2022-11-20T19:29:35.780Z,1.33
2022-11-20T19:32:04.530Z,1.57
2022-11-20T19:34:32.806Z,1.70
2022-11-20T19:37:02.267Z,1.80
2022-11-20T19:39:30.318Z,1.57
2022-11-20T19:41:58.175Z,1.43
2022-11-20T19:44:25.999Z,1.30
2022-11-20T19:46:53.934Z,1.60
2022-11-20T19:49:22.204Z,1.57
2022-11-20T19:51:50.984Z,1.73
2022-11-20T19:54:20.174Z,1.20
2022-11-20T19:56:49.455Z,1.43
2022-11-20T19:59:17.573Z,1.33
2022-11-20T20:01:45.517Z,1.10
2022-11-20T20:04:13.533Z,1.10
2022-11-20T20:06:42.016Z,1.10
2022-11-20T20:09:11.856Z,1.10
2022-11-20T20:11:41.848Z,1.00
2022-11-20T20:14:13.606Z,1.30
2022-11-20T20:16:42.266Z,1.07
2022-11-20T20:19:14.139Z,0.90
2022-11-20T20:21:42.286Z,1.10
2022-11-20T20:24:11.499Z,1.00
2022-11-20T20:26:41.265Z,1.10
2022-11-20T20:29:09.158Z,0.97
2022-11-20T20:31:37.068Z,1.17
2022-11-20T20:34:05.955Z,1.00
2022-11-20T20:36:34.069Z,1.10
2022-11-20T20:39:03.068Z,0.90
2022-11-20T20:41:31.076Z,1.00
2022-11-20T20:44:17.677Z,1.10
2022-11-20T20:46:45.545Z,1.20
2022-11-20T20:49:13.782Z,1.17
2022-11-20T20:51:41.685Z,1.37
2022-11-20T20:54:09.539Z,1.23
2022-11-20T20:56:37.492Z,1.30
2022-11-20T20:59:06.658Z,1.30
2022-11-20T21:01:34.662Z,1.50
2022-11-20T21:04:02.998Z,1.40
2022-11-20T21:06:30.877Z,1.20
2022-11-20T21:08:58.758Z,1.20
2022-11-20T21:11:26.720Z,1.50
2022-11-20T21:13:54.600Z,1.50
2022-11-20T21:16:25.036Z,1.23
2022-11-20T21:18:52.901Z,0.90
2022-11-20T21:21:38.552Z,1.30
2022-11-20T21:24:07.201Z,1.30
2022-11-20T21:26:35.605Z,1.43
2022-11-20T21:29:03.496Z,1.23
2022-11-20T21:31:32.684Z,1.10
2022-11-20T21:34:01.287Z,1.23
2022-11-20T21:36:31.202Z,1.30
2022-11-20T21:39:00.447Z,1.50
2022-11-20T21:41:30.210Z,1.23
2022-11-20T21:44:29.584Z,1.30
2022-11-20T21:46:48.848Z,1.30
2022-11-20T21:49:18.200Z,1.10
2022-11-20T21:51:46.044Z,1.57
2022-11-20T21:54:13.943Z,1.80
2022-11-20T21:56:41.796Z,1.50
2022-11-20T21:59:13.084Z,1.30
2022-11-20T22:01:41.441Z,1.50
2022-11-20T22:04:16.393Z,1.50
2022-11-20T22:06:44.287Z,1.70
2022-11-20T22:09:12.272Z,1.53
2022-11-20T22:11:40.201Z,1.60
2022-11-20T22:14:21.397Z,1.50
2022-11-20T22:16:50.541Z,1.50
2022-11-20T22:19:20.928Z,1.63
2022-11-20T22:21:49.294Z,1.70
2022-11-20T22:24:18.448Z,1.63
2022-11-20T22:26:46.659Z,1.63
2022-11-20T22:29:16.316Z,2.00
2022-11-20T22:31:44.357Z,1.53
2022-11-20T22:34:13.538Z,1.67
2022-11-20T22:36:42.778Z,1.50
2022-11-20T22:39:10.846Z,1.47
2022-11-20T22:41:38.695Z,1.30
2022-11-20T22:44:08.443Z,1.40
2022-11-20T22:46:38.120Z,1.30
2022-11-20T22:49:07.392Z,1.20
2022-11-20T22:51:37.393Z,1.37
2022-11-20T22:54:07.193Z,2.00
2022-11-20T22:56:35.266Z,1.57
2022-11-20T22:59:03.130Z,1.30
2022-11-20T23:01:32.592Z,1.53
2022-11-20T23:04:02.672Z,1.70
2022-11-20T23:06:34.109Z,1.70
2022-11-20T23:09:02.392Z,1.60
2022-11-20T23:11:32.345Z,1.20
2022-11-20T23:14:01.644Z,2.00
2022-11-20T23:16:30.712Z,1.57
2022-11-20T23:19:00.640Z,1.90
2022-11-20T23:21:29.241Z,1.60
2022-11-20T23:23:58.478Z,1.63
2022-11-20T23:26:28.122Z,1.60
2022-11-20T23:28:58.659Z,1.80
2022-11-20T23:31:28.211Z,1.80
2022-11-20T23:33:57.126Z,1.90
2022-11-20T23:36:25.995Z,1.70
2022-11-20T23:38:54.795Z,1.60
2022-11-20T23:41:22.603Z,2.23
2022-11-20T23:43:50.430Z,1.63
2022-11-20T23:46:19.694Z,1.60
2022-11-20T23:48:47.560Z,1.73
2022-11-20T23:51:15.761Z,1.70
2022-11-20T23:53:43.720Z,2.00
2022-11-20T23:56:14.186Z,1.77
2022-11-20T23:58:42.648Z,1.80
